EGPFEGCC

Guest
Details From EGPF - Glasgow
To EGCC - Manchester Intl
Flight Number -
Tags generated
Created
Modified
Stats Distance 169 nm / 313 km
Max Altitude 20,000 ft / 6,096 m
Waypoints 3
Social Downloads 6
Likes 0
Share VATSIM

Download

Looking for another format? Having issues loading an existing format? Contact us
Advertisement - Login to hide

Notes

Basic altitude profile: - Ascent Rate: 2000ft/min - Ascent Speed: 250kts - Cruise Altitude: 20000ft - Cruise Speed: 250kts - Descent Rate: 1500ft/min - Descent Speed: 200kts Options: - Use NATs: yes - Use PACOTS: yes - Use low airways: yes - Use high airways: yes

Route

EGPF DCS EGCC

ID Type Via Altitude (ft/m) Position (lat/lon) Dist (leg/tot) Name
O EGPF APT - 0 / 0 55.87170 / -4.43370 - / 0 nm Glasgow
DCS DME - 20,000 / 6,096 54.72190 / -3.34056 78 / 78 nm DEAN CROSS VOR-DME
O EGCC APT - 0 / 0 53.34710 / -2.28393 90 / 169 nm Manchester Intl

Altitude Profile

Advertisement - Login to hide

Weather


0- 5 10 15 20 25 30 35+ Temperature / °C

Clouds and Precipitation
Forecast for 2019-08-24 18:00 UTC. Updated 5 hours ago

Ground ~20,000 ft ~40,000 ft Winds

EGPF

Details ICAO EGPF (GLA)
Name Glasgow
Region United Kingdom
Timezone Europe/London (UTC+1.0)
Stats Elevation 26 ft / 8 m (AMSL)
Location 55.871700° -4.433700°
Runways 1
Magnetic Variation 2.440° W

METAR

EGPF 242020Z AUTO 11004KT 070V170 9999 NCD 18/13 Q1017

Decode

TAF

TAF EGPF 241653Z 2418/2518 08005KT CAVOK PROB40 2503/2506 7000 BECMG 2513/2516 20010KT

Decode

Departure Runways

ID Width Length Bearing (true/mag) Surface Threshold Overrun Markings Lighting
05 148 ft / 45 m 8,699 ft / 2,651 m 46.34° / 48.78° ASPHALT 0 ft / 0 m 489 ft / 149 m PREC-APP CENTERLINE EDGE THRESHOLD MALSF
23 148 ft / 45 m 8,699 ft / 2,651 m 226.36° / 228.80° ASPHALT 974 ft / 297 m 0 ft / 0 m PREC-APP CENTERLINE EDGE THRESHOLD MALSF

EGCC

Details ICAO EGCC (MAN)
Name Manchester Intl
Region United Kingdom
Timezone Europe/London (UTC+1.0)
Stats Elevation 257 ft / 78 m (AMSL)
Location 53.347400° -2.283480°
Runways 2
Magnetic Variation 1.195° W

METAR

EGCC 242020Z AUTO VRB02KT 9999 NCD 19/13 Q1017 NOSIG

Decode

TAF

TAF EGCC 241655Z 2418/2524 15005KT 9999 FEW045= TAF EGKK 241705Z 2418/2524 12004KT CAVOK PROB40 TEMPO 2423/2509 5000 HZ

Decode

Destination Runways

ID Width Length Bearing (true/mag) Surface Threshold Overrun Markings Lighting
05L 151 ft / 46 m 9,980 ft / 3,042 m 51.00° / 52.19° ASPHALT 1,401 ft / 427 m 0 ft / 0 m PREC-APP CENTERLINE EDGE THRESHOLD ALSF-II TDZ REIL-UNI
05R 144 ft / 44 m 10,519 ft / 3,206 m 50.98° / 52.17° ASPHALT 0 ft / 0 m 0 ft / 0 m UK-PREC-APP CENTERLINE EDGE THRESHOLD ALSF-I REIL-UNI
23L 144 ft / 44 m 10,519 ft / 3,206 m 231.00° / 232.20° ASPHALT 1,093 ft / 333 m 0 ft / 0 m UK-PREC-APP CENTERLINE EDGE THRESHOLD ALSF-I REIL-UNI
23R 151 ft / 46 m 9,980 ft / 3,042 m 231.03° / 232.22° ASPHALT 597 ft / 182 m 200 ft / 61 m PREC-APP CENTERLINE EDGE THRESHOLD ALSF-II TDZ REIL-UNI

Approach Navaids

Runway Type Ident Frequency Range Bearing (true/mag) Slope Elevation
05L LOC-ILS IMM 109.50 MHz 18 nm / 33 km 51.03° / 52.23 ° - 257 ft / 78 m (AMSL)
05L GS IMM 109.50 MHz 10 nm / 19 km 51.01° / 52.21 ° 3.00° 257 ft / 78 m (AMSL)
05L DME IMM 109.50 MHz 18 nm / 33 km - - 294 ft / 90 m (AMSL)
05R LOC-ILS IMC 111.55 MHz 18 nm / 33 km 51.01° / 52.20 ° - 257 ft / 78 m (AMSL)
05R DME IMC 111.55 MHz 18 nm / 33 km - - 212 ft / 65 m (AMSL)
05R GS IMC 111.55 MHz 10 nm / 19 km 51.97° / 53.17 ° 3.00° 257 ft / 78 m (AMSL)
23R GS INN 109.50 MHz 10 nm / 19 km 231.01° / 232.21 ° 3.00° 257 ft / 78 m (AMSL)
23R DME INN 109.50 MHz 18 nm / 33 km - - 294 ft / 90 m (AMSL)
23R LOC-ILS INN 109.50 MHz 18 nm / 33 km 230.98° / 232.17 ° - 257 ft / 78 m (AMSL)

Popular Alternatives